Tiempo atmosférico en la estación meteorológica de Velilla del Río Carrión, Camporredondo de Alba, Palencia (1575 m.)



Fecha
DESCASC
Temp. máxima en grados centígrados (hora)
DESCASC
Temp. mínima en grados centígrados (hora)
DESCASC
Temp. media en grados centígrados
DESCASC
Racha de viento máxima en m/sg (hora)
DESCASC
Velocidad máxima media en intervalos de 10 minutos(hora)
DESCASC
Precipitaciones diarias en mm
DESCASC
Precipitaciones de 00:00 a 06:00 en mm
DESCASC
Precipitaciones de 06:00 a 12:00 en mm
DESCASC
Precipitaciones de 12:00 a 18:00 en mm
DESCASC
Precipitaciones de 18:00 a 24:00 en mm
DESCASC
03-12-2020 2.5 (13:30) -3.4 (07:10) -0.5 21.11 (19:40) 14.72 (19:40) 0 0 0 0 0
02-12-2020 6.3 (13:10) -2.4 (20:50) 2 9.17 (07:50) 5.56 (08:00) 0 0 0 0 0
01-12-2020 12 (13:00) 1.9 (23:20) 6.9 11.94 (06:20) 8.61 (06:20) 0 0 0 0 0
30-11-2020 13.6 (16:00) 2.6 (00:00) 8.1 7.5 (20:50) 5.83 (20:50) 0 0 0 0 0
29-11-2020 11.2 (13:30) 2.3 (00:00) 6.7 6.39 (15:40) 3.61 (15:30) 0 0 0 0 0
28-11-2020 11.4 (15:20) 1.5 (00:00) 6.4 7.5 (21:20) 5.28 (17:50) 0 0 0 0 0
27-11-2020 8.4 (13:40) 2.7 (00:00) 5.5 12.5 (02:20) 7.5 (10:00) 0 0 0 0 0
26-11-2020 8.7 (14:50) 2.5 (00:00) 5.6 13.06 (23:10) 8.33 (23:10) 0.6 0.4 0 0.2 0
25-11-2020 3.3 (20:10) 1.7 (00:00) 2.5 10.28 (01:50) 6.11 (01:40) 0.2 0 0 0.2 0
24-11-2020 10.2 (15:40) 2.3 (00:00) 6.2 9.72 (14:20) 6.11 (13:00) 0 0 0 0 0
23-11-2020 14.9 (13:40) 5.5 (00:00) 10.2 3.33 (16:20) 2.78 (21:30) 0 0 0 0 0
22-11-2020 18.1 (14:10) 5.5 (00:00) 11.8 5 (00:30) 3.61 (00:30) 0 0 0 0 0
21-11-2020 14.9 (16:20) 5.9 (00:00) 10.4 8.06 (02:40) 5.83 (03:00) 0 0 0 0 0
20-11-2020 14.9 (15:10) 2.5 (00:00) 8.7 6.67 (20:00) 3.89 (19:20) 0 0 0 0 0
19-11-2020 14.1 (12:20) 3 (00:00) 8.6 9.44 (15:40) 6.67 (15:30) 0 0 0 0 0
18-11-2020 16.7 (14:20) 7 (00:00) 11.9 8.61 (00:10) 6.67 (00:10) 0 0 0 0 0
17-11-2020 15.3 (12:30) 6.7 (00:00) 11 9.17 (23:10) 7.5 (23:10) 0 0 0 0 0
16-11-2020 10.9 (15:20) 3.6 (00:00) 7.2 6.67 (15:00) 4.17 (14:40) 0.4 0.2 0.2 0 0
15-11-2020 9.1 (14:00) 6.9 (00:00) 8 19.17 (14:00) 12.22 (11:20) 8.5 2.6 3.8 1.9 0.2
14-11-2020 6.9 (23:00) 3.7 (00:00) 5.3 13.33 (13:20) 8.89 (14:40) 0.2 0 0 0 0.2
13-11-2020 13.1 (13:40) 3.7 (00:00) 8.4 7.78 (11:40) 6.11 (23:50) 0 0 0 0 0
12-11-2020 14 (15:00) 4.4 (00:00) 9.2 8.06 (01:10) 5.83 (01:20) 0 0 0 0 0
11-11-2020 8.3 (14:00) 2.6 (00:00) 5.5 13.61 (12:20) 10 (12:20) 0.2 0 0 0 0.2
10-11-2020 12.1 (13:20) 2.7 (00:00) 7.4 6.11 (14:10) 3.61 (16:30) 0.2 0.2 0 0 0
09-11-2020 6.9 (14:10) 3.8 (00:00) 5.4 9.17 (04:30) 6.11 (04:30) 0.2 0 0 0.2 0
08-11-2020 5.9 (13:30) 5.1 (00:00) 5.5 18.61 (14:10) 11.39 (14:10) 13.2 2.2 3.4 5.2 2.4
07-11-2020 7.7 (14:40) 5.6 (00:00) 6.6 27.5 (00:50) 14.72 (03:30) 8.4 7 0.6 0.8 0
06-11-2020 9.6 (18:30) 5.6 (00:00) 7.6 32.5 (22:10) 20.28 (22:10) 8.8 0.6 0.2 0 8
05-11-2020 8.2 (14:50) 0.3 (00:00) 4.2 16.11 (23:00) 9.17 (10:30) 1.8 0 0 0 1.8

Gráficas

Temp. máximas Temp. mínimas Temp. medias Precipitaciones Rachas de viento máximas Velocidades máximas media en intervalos de 10 minutos

Datos horarios

Fecha y hora oficial Temperatura (ºC) Velocidad del viento (km/h) Dirección del viento Racha (km/h) Dirección de racha Precipitación (mm) Presión (hPa) Tendencia (hPa) Humedad (%)
2020-12-04 23:00:00 -4.5 10 Oeste 17 Oeste 0 -- -- 96
2020-12-04 22:00:00 -4.8 10 Oeste 20 Oeste 0 -- -- 96
2020-12-04 21:00:00 -5 14 Oeste 24 Oeste 0 -- -- 96
2020-12-04 20:00:00 -4.9 14 Oeste 27 Oeste 0 -- -- 96
2020-12-04 19:00:00 -4.5 13 Oeste 26 Oeste 0 -- -- 96
2020-12-04 18:00:00 -4.3 16 Oeste 25 Oeste 0 -- -- 96
2020-12-04 17:00:00 -4 16 Oeste 34 Oeste 0 -- -- 96
2020-12-04 16:00:00 -3.3 20 Oeste 32 Oeste 0.2 -- -- 95
2020-12-04 15:00:00 -2 18 Oeste 32 Oeste 0 -- -- 94
2020-12-04 14:00:00 -3 17 Oeste 27 Oeste 0 -- -- 95
2020-12-04 13:00:00 -3.1 11 Oeste 23 Oeste 0 -- -- 95
2020-12-04 12:00:00 -3.6 14 Oeste 24 Oeste 0 -- -- 95
2020-12-04 11:00:00 -4.3 8 Oeste 30 Oeste 0 -- -- 94
2020-12-04 10:00:00 -4.1 18 Oeste 30 Oeste 0 -- -- 94
2020-12-04 09:00:00 -5.2 22 Oeste 32 Oeste 0 -- -- 95
2020-12-04 08:00:00 -5.1 18 Oeste 28 Oeste 0 -- -- 96
2020-12-04 07:00:00 -5.1 17 Oeste 30 Oeste 0 -- -- 96
2020-12-04 06:00:00 -4.9 20 Oeste 29 Oeste 0 -- -- 96
2020-12-04 05:00:00 -4.5 21 Oeste 35 Oeste 0 -- -- 96
2020-12-04 04:00:00 -3.9 15 Oeste 31 Oeste 0 -- -- 96
2020-12-04 03:00:00 -3.1 19 Oeste 38 Oeste 0 -- -- 97
2020-12-04 02:00:00 -2.6 13 Oeste 30 Oeste 0 -- -- 98
2020-12-04 01:00:00 -1.7 12 Oeste 41 Oeste 0 -- -- 98
2020-12-04 00:00:00 -1.2 8 Oeste 38 Oeste 0 -- -- 99
2020-12-03 23:00:00 -0.1 26 Oeste 49 Oeste 0 -- -- 99
2020-12-03 22:00:00 -0.4 32 Oeste 61 Oeste 0 -- -- 98
2020-12-03 21:00:00 -0.3 36 Oeste 76 Oeste 0 -- -- 98
2020-12-03 20:00:00 -0.4 50 Oeste 76 Oeste 0 -- -- 98
2020-12-03 19:00:00 -0.1 44 Oeste 72 Oeste 0 -- -- 97
2020-12-03 18:00:00 -0.4 30 Oeste 51 Oeste 0 -- -- 95
2020-12-03 17:00:00 -1 28 Oeste 45 Oeste 0 -- -- 95
2020-12-03 16:00:00 -1.4 32 Oeste 47 Oeste 0 -- -- 95
2020-12-03 15:00:00 -1.3 27 Oeste 43 Oeste 0 -- -- 91
2020-12-03 14:00:00 2.4 19 Oeste 32 Oeste 0 -- -- 73
2020-12-03 13:00:00 0.7 19 Oeste 42 Oeste 0 -- -- 81
2020-12-03 12:00:00 1.6 22 Oeste 37 Oeste 0 -- -- 76
2020-12-03 11:00:00 -1.4 24 Oeste 35 Oeste 0 -- -- 88
2020-12-03 10:00:00 -2.1 28 Noroeste 38 Noroeste 0 -- -- 90
2020-12-03 09:00:00 -2.7 28 Noroeste 36 Oeste 0 -- -- 96
2020-12-03 08:00:00 -3.2 19 Oeste 24 Oeste 0 -- -- 97
2020-12-03 07:00:00 -3.1 11 Oeste 16 Noroeste 0 -- -- 97
2020-12-03 06:00:00 -3.1 10 Oeste 19 Oeste 0 -- -- 97
2020-12-03 05:00:00 -2.9 14 Oeste 20 Noroeste 0 -- -- 95
2020-12-03 04:00:00 -2.7 7 Noroeste 11 Noroeste 0 -- -- 92
2020-12-03 03:00:00 -2.8 8 Oeste 10 Sudoeste 0 -- -- 87
2020-12-03 02:00:00 -2.6 6 Noroeste 9 Oeste 0 -- -- 84
2020-12-03 01:00:00 -2.9 7 Oeste 13 Noroeste 0 -- -- 85
2020-12-03 00:00:00 -1.9 10 Noroeste 17 Oeste 0 -- -- 76
2020-12-02 23:00:00 -1.9 8 Oeste 14 Oeste 0 -- -- 76
2020-12-02 22:00:00 -1.7 6 Oeste 17 Oeste 0 -- -- 77
2020-12-02 21:00:00 -2.4 3 Norte 15 Norte 0 -- -- 85
2020-12-02 20:00:00 -1.9 8 Oeste 16 Noroeste 0 -- -- 84
2020-12-02 19:00:00 -1.7 5 Oeste 11 Oeste 0 -- -- 84
2020-12-02 18:00:00 -0.2 4 Norte 9 Norte 0 -- -- 61
2020-12-02 17:00:00 0.8 6 Este 16 Nordeste 0 -- -- 58
2020-12-02 16:00:00 5 2 Noroeste 26 Nordeste 0 -- -- 43
2020-12-02 15:00:00 3.5 14 Este 29 Este 0 -- -- 42
2020-12-02 14:00:00 4.3 12 Nordeste 29 Este 0 -- -- 41
2020-12-02 13:00:00 5.8 4 Nordeste 19 Noroeste 0 -- -- 33
2020-12-02 12:00:00 5.2 4 Norte 17 Oeste 0 -- -- 41
2020-12-02 11:00:00 4.5 4 Noroeste 25 Nordeste 0 -- -- 50
2020-12-02 10:00:00 0.1 8 Este 27 Este 0 -- -- 63
2020-12-02 09:00:00 -0.5 8 Nordeste 27 Nordeste 0 -- -- 66
2020-12-02 08:00:00 -0.6 20 Nordeste 33 Nordeste 0 -- -- 73
2020-12-02 07:00:00 0.3 17 Nordeste 23 Nordeste 0 -- -- 63
2020-12-02 06:00:00 0.3 13 Este 18 Este 0 -- -- 94
2020-12-02 05:00:00 1.7 2 Oeste 5 Noroeste 0 -- -- 91
2020-12-02 04:00:00 2.1 0 Calma 11 Este 0 -- -- 87
2020-12-02 03:00:00 2.5 8 Este 16 Este 0 -- -- 85
2020-12-02 02:00:00 3.2 4 Oeste 15 Oeste 0 -- -- 78
2020-12-02 01:00:00 3.3 11 Oeste 18 Oeste 0 -- -- 78
2020-12-02 00:00:00 2.6 7 Oeste 14 Oeste 0 -- -- 78
2020-12-01 23:00:00 2.4 10 Oeste 18 Oeste 0 -- -- 77
2020-12-01 22:00:00 2.4 13 Oeste 24 Noroeste 0 -- -- 74
2020-12-01 21:00:00 3.5 14 Noroeste 26 Noroeste 0 -- -- 69
2020-12-01 20:00:00 3.6 13 Norte 22 Norte 0 -- -- 66
2020-12-01 19:00:00 4.2 18 Norte 28 Norte 0 -- -- 59
2020-12-01 18:00:00 4.9 12 Norte 25 Norte 0 -- -- 57
2020-12-01 17:00:00 6.9 10 Norte 23 Nordeste 0 -- -- 52
2020-12-01 16:00:00 7.9 9 Nordeste 26 Nordeste 0 -- -- 49
2020-12-01 15:00:00 9.1 8 Noroeste 22 Este 0 -- -- 50
2020-12-01 14:00:00 8.5 18 Nordeste 33 Nordeste 0 -- -- 46
2020-12-01 13:00:00 12 4 Noroeste 12 Este 0 -- -- 36
2020-12-01 12:00:00 9 5 Este 13 Este 0 -- -- 41
2020-12-01 11:00:00 7.4 10 Este 17 Sudeste 0 -- -- 43
2020-12-01 10:00:00 6.2 8 Este 18 Este 0 -- -- 44
2020-12-01 09:00:00 4 13 Este 31 Este 0 -- -- 49
2020-12-01 08:00:00 3.5 13 Este 33 Sudeste 0 -- -- 49
2020-12-01 07:00:00 4 17 Este 43 Este 0 -- -- 44
2020-12-01 06:00:00 3.7 30 Este 39 Este 0 -- -- 44
2020-12-01 05:00:00 4.1 23 Este 29 Sudeste 0 -- -- 37
2020-12-01 04:00:00 4.1 9 Sudeste 23 Este 0 -- -- 33
2020-12-01 03:00:00 4.8 14 Sudeste 22 Este 0 -- -- 32
2020-12-01 02:00:00 4.4 8 Este 19 Sudeste 0 -- -- 35
2020-12-01 01:00:00 5 12 Este 19 Sudeste 0 -- -- 32
2020-12-01 00:00:00 5.7 4 Sudeste 19 Este 0 -- -- 32
2020-11-30 23:00:00 6.1 11 Este 14 Sudeste 0 -- -- 38
2020-11-30 22:00:00 6.7 8 Este 24 Este 0 -- -- 42
2020-11-30 21:00:00 5.2 17 Sudeste 27 Este 0 -- -- 59
2020-11-30 20:00:00 5 16 Este 22 Este 0 -- -- 64
2020-11-30 19:00:00 5.1 10 Este 14 Este 0 -- -- 71
2020-11-30 18:00:00 6.2 9 Este 15 Este 0 -- -- 67
2020-11-30 17:00:00 9.4 10 Este 14 Este 0 -- -- 53
2020-11-30 16:00:00 13.6 0 Calma 7 Sudoeste 0 -- -- 40
2020-11-30 15:00:00 11.7 6 Sur 10 Sur 0 -- -- 44
2020-11-30 14:00:00 12 4 Sur 10 Oeste 0 -- -- 49
2020-11-30 13:00:00 10.7 2 Sudeste 8 Este 0 -- -- 49
2020-11-30 12:00:00 8.4 3 Sudeste 6 Este 0 -- -- 52
2020-11-30 11:00:00 7.2 2 Sudoeste 6 Este 0 -- -- 60
2020-11-30 10:00:00 4.7 3 Este 6 Este 0 -- -- 61
2020-11-30 09:00:00 4.7 0 Calma 5 Norte 0 -- -- 63
2020-11-30 08:00:00 4.3 5 Oeste 6 Oeste 0 -- -- 66
2020-11-30 07:00:00 3.9 0 Calma 5 Nordeste 0 -- -- 70
2020-11-30 06:00:00 3.5 3 Norte 7 Norte 0 -- -- 73
2020-11-30 05:00:00 4.1 6 Sudoeste 9 Sudoeste 0 -- -- 73
2020-11-30 04:00:00 3.1 3 Noroeste 8 Noroeste 0 -- -- 73
2020-11-30 03:00:00 3.3 6 Noroeste 13 Norte 0 -- -- 74
2020-11-30 02:00:00 3.3 5 Noroeste 9 Norte 0 -- -- 76
2020-11-30 01:00:00 3.6 3 Noroeste 4 Noroeste 0 -- -- 77
2020-11-30 00:00:00 4.2 3 Sudoeste 7 Oeste 0 -- -- 80
2020-11-29 23:00:00 3.9 3 Oeste 4 Oeste 0 -- -- 82
2020-11-29 22:00:00 3.9 0 Calma 4 Nordeste 0 -- -- 86
2020-11-29 21:00:00 4 0 Calma 4 Noroeste 0 -- -- 86
2020-11-29 20:00:00 4.4 4 Oeste 9 Noroeste 0 -- -- 83
2020-11-29 19:00:00 5.2 9 Noroeste 11 Noroeste 0 -- -- 81
2020-11-29 18:00:00 5.5 8 Oeste 13 Noroeste 0 -- -- 80
2020-11-29 17:00:00 7.8 5 Oeste 16 Sudoeste 0 -- -- 69
2020-11-29 16:00:00 9.8 12 Oeste 23 Oeste 0 -- -- 63
2020-11-29 15:00:00 10.9 12 Oeste 22 Oeste 0 -- -- 61
2020-11-29 14:00:00 10.4 10 Oeste 17 Oeste 0 -- -- 60
2020-11-29 13:00:00 10.7 3 Oeste 13 Oeste 0 -- -- 57
2020-11-29 12:00:00 9.7 4 Sudoeste 9 Oeste 0 -- -- 66
2020-11-29 11:00:00 6.3 2 Sudeste 9 Sudeste 0 -- -- 73
2020-11-29 10:00:00 6.4 3 Sudeste 6 Este 0 -- -- 73
2020-11-29 09:00:00 3 4 Sudoeste 5 Sudoeste 0 -- -- 88
2020-11-29 08:00:00 2.9 0 Calma 5 Oeste 0 -- -- 88
2020-11-29 07:00:00 2.7 0 Calma 5 Oeste 0 -- -- 89
2020-11-29 06:00:00 2.5 2 Norte 9 Noroeste 0 -- -- 90
2020-11-29 05:00:00 2.5 5 Norte 8 Oeste 0 -- -- 89
2020-11-29 04:00:00 3 7 Oeste 9 Oeste 0 -- -- 85
2020-11-29 03:00:00 2.7 4 Oeste 8 Sudoeste 0 -- -- 86
2020-11-29 02:00:00 2.7 0 Calma 5 Sudoeste 0 -- -- 87
2020-11-29 01:00:00 3.1 3 Sudoeste 11 Sudoeste 0 -- -- 86
2020-11-29 00:00:00 3.3 7 Oeste 13 Oeste 0 -- -- 87
2020-11-28 23:00:00 3.1 4 Sur 20 Sudoeste 0 -- -- 91
2020-11-28 22:00:00 3.2 10 Sudoeste 27 Sudoeste 0 -- -- 90
2020-11-28 21:00:00 3.8 8 Oeste 18 Sudoeste 0 -- -- 88
2020-11-28 20:00:00 3.8 6 Oeste 24 Oeste 0 -- -- 84
2020-11-28 19:00:00 3.7 13 Sudoeste 23 Sudoeste 0 -- -- 86
2020-11-28 18:00:00 4.1 15 Sudoeste 24 Sudoeste 0 -- -- 85
2020-11-28 17:00:00 4.8 15 Sudoeste 21 Sudoeste 0 -- -- 81
2020-11-28 16:00:00 6 10 Sudoeste 19 Sudoeste 0 -- -- 78
2020-11-28 15:00:00 9 3 Oeste 11 Sudoeste 0 -- -- 64
2020-11-28 14:00:00 7.9 6 Oeste 16 Oeste 0 -- -- 67
2020-11-28 13:00:00 8.8 9 Oeste 17 Oeste 0 -- -- 66
2020-11-28 12:00:00 8.7 5 Sudoeste 9 Oeste 0 -- -- 65
2020-11-28 11:00:00 8.1 2 Sudeste 5 Sudeste 0 -- -- 65
2020-11-28 10:00:00 6.8 2 Noroeste 5 Noroeste 0 -- -- 68
2020-11-28 09:00:00 2.5 3 Oeste 6 Oeste 0 -- -- 87
2020-11-28 08:00:00 2 2 Oeste 7 Noroeste 0 -- -- 90
2020-11-28 07:00:00 2.2 5 Oeste 11 Oeste 0 -- -- 88
2020-11-28 06:00:00 2 7 Oeste 9 Noroeste 0 -- -- 87
2020-11-28 05:00:00 1.7 3 Oeste 6 Sudoeste 0 -- -- 96
2020-11-28 04:00:00 2.7 3 Sudoeste -- -- 0 -- -- 92
2020-11-28 03:00:00 2.7 0 Calma 5 Sur 0 -- -- 95
2020-11-28 02:00:00 2.9 4 Este 11 Este 0 -- -- 96
2020-11-28 01:00:00 2.9 11 Este 16 Este 0 -- -- 89
2020-11-28 00:00:00 2.9 8 Este 15 Este 0 -- -- 89
2020-11-27 23:00:00 3.2 8 Este 15 Este 0 -- -- 86
2020-11-27 22:00:00 3.1 13 Este 18 Sudeste 0 -- -- 91
2020-11-27 21:00:00 3.4 12 Sudeste 19 Este 0 -- -- 94
2020-11-27 20:00:00 3.1 15 Este 18 Este 0 -- -- 93
2020-11-27 19:00:00 4 9 Sudeste 19 Sudeste 0 -- -- 88
2020-11-27 18:00:00 5.5 6 Este 9 Sudeste 0 -- -- 77
2020-11-27 17:00:00 6 2 Sur 18 Sur 0 -- -- 78
2020-11-27 16:00:00 6.1 4 Sur 24 Sudoeste 0 -- -- 79
2020-11-27 15:00:00 5.9 6 Sur 24 Sudoeste 0 -- -- 80
2020-11-27 14:00:00 6.9 14 Sur 33 Sudoeste 0 -- -- 73
2020-11-27 13:00:00 6.4 17 Sudoeste 45 Sudoeste 0 -- -- 76
2020-11-27 12:00:00 5.6 24 Sudoeste 41 Sur 0 -- -- 82
2020-11-27 11:00:00 5.9 16 Sur 40 Sudoeste 0 -- -- 84
2020-11-27 10:00:00 4.6 27 Sudoeste 43 Sudoeste 0 -- -- 90
2020-11-27 09:00:00 4.1 13 Sur 33 Sudoeste 0 -- -- 93
2020-11-27 08:00:00 4 16 Sur 41 Sur 0 -- -- 91
2020-11-27 07:00:00 4.2 17 Sudoeste 36 Sur 0 -- -- 91
2020-11-27 06:00:00 4.1 20 Sudoeste 42 Sur 0 -- -- 96
2020-11-27 05:00:00 3.7 18 Sudoeste 41 Sur 0 -- -- 98
2020-11-27 04:00:00 3.8 15 Sur 39 Sur 0 -- -- 97
2020-11-27 03:00:00 4 21 Sur 45 Sur 0 -- -- 98
2020-11-27 02:00:00 4.1 19 Sudoeste 39 Sur 0 -- -- 97
2020-11-27 01:00:00 4.3 23 Sudoeste 42 Sur 0 -- -- 96
2020-11-27 00:00:00 4.5 27 Sudoeste 47 Sur 0 -- -- 94
2020-11-26 23:00:00 4.8 23 Sudoeste 40 Sur 0 -- -- 92
2020-11-26 22:00:00 4.5 8 Sur 23 Sudeste 0 -- -- 94
2020-11-26 21:00:00 5.1 12 Sur 27 Sur 0 -- -- 87
2020-11-26 20:00:00 4.7 9 Sudeste 19 Sudeste 0 -- -- 89
2020-11-26 19:00:00 4.5 12 Este 19 Este 0 -- -- 93
2020-11-26 18:00:00 4.9 16 Este 21 Este 0 -- -- 90
2020-11-26 17:00:00 5.5 5 Sudeste 16 Sur 0 -- -- 86
2020-11-26 16:00:00 6.2 10 Sur 20 Sur 0 -- -- 84
2020-11-26 15:00:00 8.1 3 Sur 18 Sur 0.2 -- -- 76
2020-11-26 14:00:00 6.4 6 Sur 24 Sur 0 -- -- 84
2020-11-26 13:00:00 4.3 9 Sur 21 Sudoeste 0 -- -- 91
2020-11-26 12:00:00 4.4 5 Sudeste 21 Sudeste 0 -- -- 90
2020-11-26 11:00:00 3.2 6 Sudeste 19 Este 0 -- -- 97
2020-11-26 10:00:00 2.9 6 Sudeste 22 Este 0 -- -- 99
2020-11-26 09:00:00 2.6 14 Este 28 Sur 0 -- -- 99
2020-11-26 08:00:00 2.6 6 Sudeste 24 Sudeste 0 -- -- 99
2020-11-26 07:00:00 2.9 13 Sur 30 Sudeste 0 -- -- 99
2020-11-26 06:00:00 3.2 15 Sur 32 Sur 0 -- -- 99
2020-11-26 05:00:00 3.1 14 Sur 32 Sur 0 -- -- 99
2020-11-26 04:00:00 3.1 17 Sudoeste 39 Sur 0 -- -- 99
2020-11-26 03:00:00 2.9 18 Sur 41 Sudoeste 0.2 -- -- 98
2020-11-26 02:00:00 2.9 21 Sur 37 Sur 0 -- -- 98
2020-11-26 01:00:00 2.8 17 Sur 40 Sur 0.2 -- -- 97
2020-11-26 00:00:00 2.7 18 Sur 32 Sur 0 -- -- 96
2020-11-25 23:00:00 2.5 14 Sur 33 Sur 0 -- -- 94
2020-11-25 22:00:00 2.6 8 Sur 31 Sur 0 -- -- 93
2020-11-25 21:00:00 3.1 11 Sur 30 Sur 0 -- -- 89
2020-11-25 20:00:00 3.1 6 Este 17 Este 0 -- -- 88
2020-11-25 19:00:00 2.5 7 Este 13 Este 0 -- -- 98
2020-11-25 18:00:00 2.2 7 Este 10 Este 0 -- -- 99
2020-11-25 17:00:00 2 3 Este 10 Sudoeste 0.2 -- -- 99
2020-11-25 16:00:00 2.1 3 Este 13 Sudoeste 0 -- -- 99
2020-11-25 15:00:00 2.2 7 Sudoeste 17 Sudoeste 0 -- -- 99
2020-11-25 14:00:00 2 14 Sudoeste 22 Sudoeste 0 -- -- 99
2020-11-25 13:00:00 2.6 9 Oeste 27 Oeste 0 -- -- 98
2020-11-25 12:00:00 2 15 Oeste 25 Oeste 0 -- -- 99
2020-11-25 11:00:00 2.2 12 Sudoeste 21 Oeste 0 -- -- 98
2020-11-25 10:00:00 2 9 Sudoeste 24 Sudoeste 0 -- -- 98
2020-11-25 09:00:00 2 12 Oeste 22 Sudoeste 0 -- -- 95
2020-11-25 08:00:00 1.7 8 Noroeste 26 Oeste 0 -- -- 89
2020-11-25 07:00:00 1.9 15 Oeste 25 Oeste 0 -- -- 98
2020-11-25 06:00:00 2.1 17 Oeste 29 Noroeste 0 -- -- 98
2020-11-25 05:00:00 2.2 11 Oeste 26 Oeste 0 -- -- 99
2020-11-25 04:00:00 2.3 17 Oeste 30 Oeste 0 -- -- 99
2020-11-25 03:00:00 2.6 17 Oeste 30 Oeste 0 -- -- 99
2020-11-25 02:00:00 2.8 19 Oeste 37 Oeste 0 -- -- 98
2020-11-25 01:00:00 2.8 21 Oeste 33 Oeste 0 -- -- 98
2020-11-25 00:00:00 2.4 20 Oeste 30 Oeste 0 -- -- 98
2020-11-24 23:00:00 2.3 16 Oeste 23 Oeste 0 -- -- 97
2020-11-24 22:00:00 2.7 16 Oeste 28 Oeste 0 -- -- 95
2020-11-24 21:00:00 2.7 13 Oeste 21 Oeste 0 -- -- 96
2020-11-24 20:00:00 2.5 17 Oeste 28 Oeste 0 -- -- 94
2020-11-24 19:00:00 2.6 18 Oeste 26 Oeste 0 -- -- 90
2020-11-24 18:00:00 3.8 14 Noroeste 21 Noroeste 0 -- -- 79
2020-11-24 17:00:00 6 10 Oeste 27 Sudoeste 0 -- -- 61
2020-11-24 16:00:00 9 15 Oeste 25 Oeste 0 -- -- 51
2020-11-24 15:00:00 9.2 18 Oeste 35 Sudoeste 0 -- -- 50
2020-11-24 14:00:00 8.9 21 Oeste 31 Oeste 0 -- -- 50
2020-11-24 13:00:00 8.2 22 Oeste 30 Oeste 0 -- -- 55
2020-11-24 12:00:00 8.4 15 Oeste 25 Oeste 0 -- -- 49
2020-11-24 11:00:00 7.1 18 Oeste 22 Oeste 0 -- -- 47
2020-11-24 10:00:00 6 12 Oeste 18 Oeste 0 -- -- 43
2020-11-24 09:00:00 4.5 10 Oeste 18 Oeste 0 -- -- 43
2020-11-24 08:00:00 4.8 13 Oeste 16 Oeste 0 -- -- 40
2020-11-24 07:00:00 4.6 9 Oeste 15 Oeste 0 -- -- 38
2020-11-24 06:00:00 4.8 12 Oeste 17 Oeste 0 -- -- 38
2020-11-24 05:00:00 5.3 14 Oeste 21 Noroeste 0 -- -- 35
2020-11-24 04:00:00 4.8 12 Oeste 17 Noroeste 0 -- -- 42
2020-11-24 03:00:00 5.9 13 Noroeste 14 Noroeste 0 -- -- 46
2020-11-24 02:00:00 6 5 Oeste 8 Oeste 0 -- -- 49
2020-11-24 01:00:00 6.2 5 Sudoeste 8 Sudoeste 0 -- -- 51
2020-11-24 00:00:00 6.1 4 Este 5 Sudeste 0 -- -- 51
2020-11-23 23:00:00 6.4 5 Este 8 Este 0 -- -- 53
2020-11-23 22:00:00 7 6 Este 10 Este 0 -- -- 54
2020-11-23 21:00:00 6.6 9 Nordeste 10 Nordeste 0 -- -- 56
2020-11-23 20:00:00 6.5 8 Este 9 Este 0 -- -- 57
2020-11-23 19:00:00 7 5 Este 9 Este 0 -- -- 56
2020-11-23 18:00:00 8.2 4 Este 6 Sudoeste 0 -- -- 53
2020-11-23 17:00:00 10.9 5 Sudoeste 12 Sudoeste 0 -- -- 48
2020-11-23 16:00:00 14.6 5 Oeste 11 Oeste 0 -- -- 38
2020-11-23 15:00:00 13.7 2 Sudeste 8 Oeste 0 -- -- 30
2020-11-23 14:00:00 14 2 Sur 5 Sudoeste 0 -- -- 34
2020-11-23 13:00:00 13.5 2 Sur 8 Sur 0 -- -- 32
2020-11-23 12:00:00 13.6 3 Sur 9 Sur 0 -- -- 39
2020-11-23 11:00:00 13.2 2 Sudeste 5 Sudeste 0 -- -- 29
2020-11-23 10:00:00 12.6 3 Sur 5 Sur 0 -- -- 32
2020-11-23 09:00:00 7.1 2 Sudeste 5 Sur 0 -- -- 44
2020-11-23 08:00:00 6.8 2 Sur 3 Sur 0 -- -- 50
2020-11-23 07:00:00 6.8 0 Calma 3 Este 0 -- -- 53
2020-11-23 06:00:00 6.6 2 Sudeste 4 Este 0 -- -- 52
2020-11-23 05:00:00 5.9 0 Calma 4 Nordeste 0 -- -- 57
2020-11-23 04:00:00 5.8 0 Calma 2 Sudoeste 0 -- -- 60
2020-11-23 03:00:00 5.9 0 Calma 4 Este 0 -- -- 58
2020-11-23 02:00:00 5.6 0 Calma 5 Oeste 0 -- -- 65
2020-11-23 01:00:00 6.5 5 Oeste 8 Oeste 0 -- -- 63
2020-11-23 00:00:00 6 6 Noroeste 13 Noroeste 0 -- -- 63
2020-11-22 23:00:00 5.9 0 Calma 2 Noroeste 0 -- -- 65
2020-11-22 22:00:00 7 0 Calma 2 Este 0 -- -- 58
2020-11-22 21:00:00 7 0 Calma 4 Norte 0 -- -- 59
2020-11-22 20:00:00 6.9 4 Norte 8 Nordeste 0 -- -- 63
2020-11-22 19:00:00 7.8 7 Norte 10 Noroeste 0 -- -- 58
2020-11-22 18:00:00 9 7 Noroeste 12 Oeste 0 -- -- 57
2020-11-22 17:00:00 13 7 Oeste 18 Oeste 0 -- -- 47
2020-11-22 16:00:00 15 10 Oeste 17 Oeste 0 -- -- 43
2020-11-22 15:00:00 16.2 7 Oeste 14 Oeste 0 -- -- 38
2020-11-22 14:00:00 17.5 2 Norte 11 Sudoeste 0 -- -- 33
2020-11-22 13:00:00 15.6 2 Oeste 11 Sudoeste 0 -- -- 36
2020-11-22 12:00:00 16.5 0 Calma 6 Oeste 0 -- -- 36
2020-11-22 11:00:00 14.2 2 Sudoeste 6 Oeste 0 -- -- 33
2020-11-22 10:00:00 11.4 2 Oeste 12 Noroeste 0 -- -- 34
2020-11-22 09:00:00 7.3 10 Noroeste 12 Noroeste 0 -- -- 36
2020-11-22 08:00:00 7.4 7 Noroeste 11 Noroeste 0 -- -- 33
2020-11-22 07:00:00 6.7 6 Noroeste 13 Noroeste 0 -- -- 36
2020-11-22 06:00:00 6.5 5 Noroeste 12 Noroeste 0 -- -- 34
2020-11-22 05:00:00 7 7 Noroeste 12 Noroeste 0 -- -- 32
2020-11-22 04:00:00 7.9 8 Noroeste 10 Noroeste 0 -- -- 28
2020-11-22 03:00:00 8.3 2 Oeste 10 Noroeste 0 -- -- 28
2020-11-22 02:00:00 8.6 5 Noroeste 8 Noroeste 0 -- -- 29
2020-11-22 01:00:00 7.9 8 Oeste 18 Noroeste 0 -- -- 36
2020-11-22 00:00:00 7.9 6 Noroeste 10 Noroeste 0 -- -- 35
2020-11-21 23:00:00 8 5 Oeste 8 Oeste 0 -- -- 37
2020-11-21 22:00:00 8.7 3 Sur 4 Sur 0 -- -- 37
2020-11-21 21:00:00 9.3 5 Este 10 Este 0 -- -- 35
2020-11-21 20:00:00 9.1 8 Este 8 Este 0 -- -- 37
2020-11-21 19:00:00 9.3 4 Este 7 Nordeste 0 -- -- 35
2020-11-21 18:00:00 10.8 4 Este 10 Sudeste 0 -- -- 31
2020-11-21 17:00:00 14.1 5 Sudeste 14 Sur 0 -- -- 28
2020-11-21 16:00:00 14.7 6 Sur 15 Sudeste 0 -- -- 29
2020-11-21 15:00:00 14 8 Sudeste 18 Este 0 -- -- 26
2020-11-21 14:00:00 14.3 5 Sudeste 18 Sur 0 -- -- 20
2020-11-21 13:00:00 14.5 5 Sur 21 Sur 0 -- -- 27
2020-11-21 12:00:00 13.4 8 Sudeste 20 Este 0 -- -- 22
2020-11-21 11:00:00 12.5 7 Sudeste 19 Este 0 -- -- 31
2020-11-21 10:00:00 9.7 8 Sudeste 18 Sudeste 0 -- -- 44
2020-11-21 09:00:00 7.4 7 Sudeste 13 Este 0 -- -- 54
2020-11-21 08:00:00 6.6 6 Este 18 Este 0 -- -- 58
2020-11-21 07:00:00 6 10 Sudeste 23 Sudeste 0 -- -- 61
2020-11-21 06:00:00 6.5 10 Sudeste 25 Este 0 -- -- 57
2020-11-21 05:00:00 7.1 6 Sudeste 24 Este 0 -- -- 49
2020-11-21 04:00:00 6.8 18 Este 25 Este 0 -- -- 54
2020-11-21 03:00:00 7 21 Este 29 Este 0 -- -- 60
2020-11-21 02:00:00 6.8 16 Este 29 Este 0 -- -- 60
2020-11-21 01:00:00 6.8 17 Sudeste 27 Este 0 -- -- 57
2020-11-21 00:00:00 7.4 8 Sudeste 19 Sudeste 0 -- -- 49
2020-11-20 23:00:00 6.8 11 Sudeste 19 Sudeste 0 -- -- 49
2020-11-20 22:00:00 7.1 8 Sudeste 17 Este 0 -- -- 46
2020-11-20 21:00:00 6.4 11 Este 20 Este 0 -- -- 49
2020-11-20 20:00:00 5.7 12 Este 24 Este 0 -- -- 52
2020-11-20 19:00:00 6 9 Sudeste 18 Este 0 -- -- 50
2020-11-20 18:00:00 6.9 5 Nordeste 12 Sudoeste 0 -- -- 44
2020-11-20 17:00:00 9.6 5 Sudeste 16 Este 0 -- -- 43
2020-11-20 16:00:00 12.2 4 Sur 13 Sudoeste 0 -- -- 37
2020-11-20 15:00:00 14.1 2 Nordeste 10 Sudoeste 0 -- -- 33
2020-11-20 14:00:00 11.6 3 Sudeste 12 Este 0 -- -- 35
2020-11-20 13:00:00 11.8 4 Sudeste 10 Este 0 -- -- 34
2020-11-20 12:00:00 9.7 3 Este 9 Sudeste 0 -- -- 41
2020-11-20 11:00:00 9.1 4 Este 13 Nordeste 0 -- -- 32
2020-11-20 10:00:00 6.9 4 Este 17 Este 0 -- -- 29
2020-11-20 09:00:00 3.5 4 Sudeste 8 Este 0 -- -- 33
2020-11-20 08:00:00 4 2 Nordeste 8 Nordeste 0 -- -- 39
2020-11-20 07:00:00 3.9 3 Este 9 Este 0 -- -- 43
2020-11-20 06:00:00 2.6 4 Nordeste 8 Nordeste 0 -- -- 52
2020-11-20 05:00:00 3.5 2 Oeste 5 Oeste 0 -- -- 61
2020-11-20 04:00:00 3.4 0 Calma 4 Nordeste 0 -- -- 58
2020-11-20 03:00:00 2.7 2 Norte 9 Oeste 0 -- -- 82
2020-11-20 02:00:00 2.9 3 Noroeste 6 Noroeste 0 -- -- 80
2020-11-20 01:00:00 3 0 Calma 5 Norte 0 -- -- 92
2020-11-20 00:00:00 3.6 2 Oeste 8 Noroeste 0 -- -- 87
2020-11-19 23:00:00 3.6 5 Oeste 13 Oeste 0 -- -- 94
2020-11-19 22:00:00 3 2 Norte 12 Oeste 0 -- -- 98
2020-11-19 21:00:00 4.3 8 Oeste 13 Oeste 0 -- -- 94
2020-11-19 20:00:00 4.9 9 Oeste 24 Noroeste 0 -- -- 91
2020-11-19 19:00:00 5.6 15 Noroeste 21 Noroeste 0 -- -- 89
2020-11-19 18:00:00 6.8 5 Noroeste 26 Noroeste 0 -- -- 86
2020-11-19 17:00:00 10.6 22 Noroeste 31 Noroeste 0 -- -- 68
2020-11-19 16:00:00 13.7 19 Oeste 34 Noroeste 0 -- -- 58
2020-11-19 15:00:00 13.8 19 Oeste 32 Oeste 0 -- -- 61
2020-11-19 14:00:00 13.3 21 Oeste 31 Oeste 0 -- -- 67
2020-11-19 13:00:00 13.4 17 Oeste 31 Oeste 0 -- -- 69
2020-11-19 12:00:00 13.9 4 Oeste 14 Oeste 0 -- -- 64
2020-11-19 11:00:00 13.2 4 Oeste 10 Oeste 0 -- -- 64
2020-11-19 10:00:00 10.1 6 Oeste 9 Sudoeste 0 -- -- 74
2020-11-19 09:00:00 6.6 3 Sur 11 Norte 0 -- -- 86
2020-11-19 08:00:00 6.3 7 Este 13 Este 0 -- -- 85
2020-11-19 07:00:00 7 8 Noroeste 13 Noroeste 0 -- -- 86
2020-11-19 06:00:00 6.6 14 Noroeste 18 Noroeste 0 -- -- 84
2020-11-19 05:00:00 6.7 7 Noroeste 19 Noroeste 0 -- -- 82
2020-11-19 04:00:00 9 7 Oeste 12 Oeste 0 -- -- 69
2020-11-19 03:00:00 9.1 9 Noroeste 11 Noroeste 0 -- -- 68
2020-11-19 02:00:00 10.4 7 Noroeste 21 Noroeste 0 -- -- 63
2020-11-19 01:00:00 9 17 Noroeste 23 Oeste 0 -- -- 71
2020-11-19 00:00:00 9 16 Noroeste 21 Noroeste 0 -- -- 78
2020-11-18 23:00:00 10.9 18 Noroeste 21 Oeste 0 -- -- 59
2020-11-18 22:00:00 11.1 17 Oeste 20 Oeste 0 -- -- 57
2020-11-18 21:00:00 10.8 16 Oeste 22 Oeste 0 -- -- 64
2020-11-18 20:00:00 10.6 18 Oeste 21 Oeste 0 -- -- 69
2020-11-18 19:00:00 9.7 16 Noroeste 19 Noroeste 0 -- -- 84
2020-11-18 18:00:00 9.7 15 Oeste 20 Noroeste 0 -- -- 85
2020-11-18 17:00:00 13.2 13 Oeste 21 Oeste 0 -- -- 68
2020-11-18 16:00:00 15.1 14 Oeste 23 Oeste 0 -- -- 61
2020-11-18 15:00:00 16.1 14 Oeste 21 Oeste 0 -- -- 56
2020-11-18 14:00:00 16.3 12 Oeste 23 Oeste 0 -- -- 58
2020-11-18 13:00:00 15.3 12 Oeste 21 Noroeste 0 -- -- 61
2020-11-18 12:00:00 14.7 10 Oeste 18 Oeste 0 -- -- 65
2020-11-18 11:00:00 11.9 10 Oeste 21 Oeste 0 -- -- 73
2020-11-18 10:00:00 9.8 16 Oeste 21 Noroeste 0 -- -- 83
2020-11-18 09:00:00 7.8 14 Oeste 23 Oeste 0 -- -- 89
2020-11-18 08:00:00 7.2 20 Oeste 23 Noroeste 0 -- -- 89
2020-11-18 07:00:00 7.6 10 Oeste 14 Oeste 0 -- -- 85
2020-11-18 06:00:00 7.3 7 Oeste 17 Noroeste 0 -- -- 84
2020-11-18 05:00:00 7.3 16 Noroeste 21 Oeste 0 -- -- 83
2020-11-18 04:00:00 7.6 13 Oeste 20 Oeste 0 -- -- 84
2020-11-18 03:00:00 7.1 12 Oeste 24 Oeste 0 -- -- 86
2020-11-18 02:00:00 7.8 19 Noroeste 28 Noroeste 0 -- -- 81
2020-11-18 01:00:00 7.6 21 Oeste 31 Noroeste 0 -- -- 78
2020-11-18 00:00:00 8.7 24 Noroeste 33 Oeste 0 -- -- 57
2020-11-17 23:00:00 8.9 27 Oeste 31 Oeste 0 -- -- 34
2020-11-17 22:00:00 8.2 18 Oeste 25 Oeste 0 -- -- 46
2020-11-17 21:00:00 8.9 13 Oeste 23 Noroeste 0 -- -- 53
2020-11-17 20:00:00 10.3 9 Oeste 14 Noroeste 0 -- -- 51
2020-11-17 19:00:00 10.1 11 Oeste 14 Noroeste 0 -- -- 54
2020-11-17 18:00:00 10.1 13 Oeste 19 Oeste 0 -- -- 58
2020-11-17 17:00:00 13 14 Oeste 26 Oeste 0 -- -- 54
2020-11-17 16:00:00 14.4 18 Oeste 31 Oeste 0 -- -- 51
2020-11-17 15:00:00 15 18 Oeste 32 Oeste 0 -- -- 48
2020-11-17 14:00:00 15 19 Oeste 30 Oeste 0 -- -- 45
2020-11-17 13:00:00 15.1 15 Oeste 24 Sudoeste 0 -- -- 51
2020-11-17 12:00:00 14 12 Oeste 20 Oeste 0 -- -- 54
2020-11-17 11:00:00 13.1 9 Oeste 13 Oeste 0 -- -- 48
2020-11-17 10:00:00 12.3 9 Oeste 12 Oeste 0 -- -- 46
2020-11-17 09:00:00 8.8 7 Noroeste 15 Norte 0 -- -- 53
2020-11-17 08:00:00 9 9 Noroeste 12 Noroeste 0 -- -- 52
2020-11-17 07:00:00 8.2 6 Noroeste 12 Noroeste 0 -- -- 53
2020-11-17 06:00:00 7.8 9 Noroeste 12 Noroeste 0 -- -- 54
2020-11-17 05:00:00 8.7 4 Oeste 8 Oeste 0 -- -- 50
2020-11-17 04:00:00 8.7 4 Noroeste 6 Oeste 0 -- -- 53
2020-11-17 03:00:00 8.5 5 Oeste 6 Oeste 0 -- -- 54
2020-11-17 02:00:00 7.2 3 Oeste 6 Oeste 0 -- -- 64
2020-11-17 01:00:00 7.8 0 Calma 6 Sur 0 -- -- 63
2020-11-17 00:00:00 7.6 4 Sur 9 Sudeste 0 -- -- 67
2020-11-16 23:00:00 7.2 5 Sur 9 Sur 0 -- -- 75
2020-11-16 22:00:00 6.1 3 Este -- -- 0 -- -- 90
2020-11-16 21:00:00 5.4 0 Calma 6 Noroeste 0 -- -- 94
2020-11-16 20:00:00 5.3 6 Noroeste 8 Noroeste 0 -- -- 96
2020-11-16 19:00:00 5.6 3 Noroeste 5 Sudeste 0 -- -- 89
2020-11-16 18:00:00 7.4 2 Este 12 Oeste 0 -- -- 77
2020-11-16 17:00:00 9 8 Oeste 15 Oeste 0 -- -- 74
2020-11-16 16:00:00 10 7 Oeste 22 Oeste 0 -- -- 76
2020-11-16 15:00:00 10.1 14 Oeste 24 Oeste 0 -- -- 71
2020-11-16 14:00:00 9.3 13 Oeste 20 Oeste 0 -- -- 93
2020-11-16 13:00:00 8.4 8 Oeste 17 Oeste 0 -- -- 95
2020-11-16 12:00:00 7.6 3 Este 9 Este 0 -- -- 95
2020-11-16 11:00:00 4.7 5 Este 10 Este 0 -- -- 99
2020-11-16 10:00:00 3.7 3 Sudeste 9 Este 0 -- -- 100
2020-11-16 09:00:00 3.9 3 Sudeste 9 Este 0.2 -- -- 100
2020-11-16 08:00:00 3.7 6 Este 10 Este 0 -- -- 100
2020-11-16 07:00:00 4.2 3 Este 7 Este 0 -- -- 100
2020-11-16 06:00:00 4.6 0 Calma 7 Este 0.2 -- -- 100
2020-11-16 05:00:00 4.9 0 Calma 9 Este 0 -- -- 100
2020-11-16 04:00:00 5.4 0 Calma 9 Este 0 -- -- 100
2020-11-16 03:00:00 5.4 0 Calma 4 Este 0 -- -- 100
2020-11-16 02:00:00 6.1 5 Oeste 12 Oeste 0 -- -- 100
2020-11-16 01:00:00 6.7 10 Oeste 13 Oeste 0 -- -- 100
2020-11-16 00:00:00 7.2 5 Oeste 14 Oeste 0 -- -- 100
2020-11-15 23:00:00 7.6 9 Oeste 25 Noroeste 0 -- -- 100
2020-11-15 22:00:00 8 13 Oeste 41 Noroeste 0 -- -- 100
2020-11-15 21:00:00 8.2 28 Oeste 44 Oeste 0.2 -- -- 100
2020-11-15 20:00:00 8.4 23 Oeste 43 Oeste 0 -- -- 100
2020-11-15 19:00:00 8.6 27 Oeste 51 Oeste 0 -- -- 100
2020-11-15 18:00:00 8.7 33 Oeste 50 Oeste -- -- -- 100
2020-11-15 17:00:00 8.7 30 Oeste 46 Oeste 0.4 -- -- 100
2020-11-15 16:00:00 8.8 21 Oeste 37 Oeste 0.2 -- -- 100
2020-11-15 15:00:00 9 31 Oeste 68 Oeste 0.4 -- -- 100
2020-11-15 14:00:00 9.1 42 Oeste 69 Oeste 0.4 -- -- 100
2020-11-15 13:00:00 8.5 35 Oeste 59 Oeste 0.2 -- -- 100
2020-11-15 12:00:00 8.4 31 Oeste 67 Oeste 0 -- -- 100
2020-11-15 11:00:00 8.3 40 Oeste 65 Oeste 0.4 -- -- 100
2020-11-15 10:00:00 8.3 29 Oeste 61 Oeste 1.4 -- -- 100
2020-11-15 09:00:00 8.1 34 Oeste 66 Oeste 0.8 -- -- 100
2020-11-15 08:00:00 7.8 38 Oeste 64 Oeste 0.4 -- -- 100
2020-11-15 07:00:00 7.5 26 Oeste 62 Oeste 0.8 -- -- 100
2020-11-15 06:00:00 7.6 28 Oeste 52 Oeste 0.2 -- -- 100
2020-11-15 05:00:00 7.5 19 Oeste 40 Oeste 0.2 -- -- 100
2020-11-15 04:00:00 7.5 22 Oeste 44 Oeste 0.6 -- -- 100
2020-11-15 03:00:00 7.3 23 Oeste 41 Oeste 0.4 -- -- 100
2020-11-15 02:00:00 7.2 18 Oeste 34 Oeste 0.6 -- -- 100
2020-11-15 01:00:00 7.1 17 Oeste 32 Oeste 0.6 -- -- 100
2020-11-15 00:00:00 6.9 19 Oeste 36 Oeste 0 -- -- 100
2020-11-14 23:00:00 6.9 16 Oeste 34 Oeste 0 -- -- 100
2020-11-14 22:00:00 6.5 17 Oeste 35 Oeste 0.2 -- -- 100
2020-11-14 21:00:00 6.5 18 Oeste 28 Oeste 0 -- -- 100
2020-11-14 20:00:00 6.7 23 Oeste 34 Oeste 0 -- -- 100
2020-11-14 19:00:00 6.4 20 Oeste 36 Oeste 0 -- -- 100
2020-11-14 18:00:00 5.9 22 Oeste 43 Oeste 0 -- -- 100
2020-11-14 17:00:00 5.9 29 Oeste 43 Noroeste 0 -- -- 99
2020-11-14 16:00:00 6 27 Oeste 47 Oeste 0 -- -- 99
2020-11-14 15:00:00 6.3 24 Oeste 47 Oeste 0 -- -- 99
2020-11-14 14:00:00 6 24 Oeste 48 Oeste 0 -- -- 96
2020-11-14 13:00:00 6.5 27 Oeste 44 Oeste 0 -- -- 95
2020-11-14 12:00:00 5.9 20 Oeste 38 Oeste 0 -- -- 96
2020-11-14 11:00:00 5.7 19 Oeste 37 Oeste 0 -- -- 92
2020-11-14 10:00:00 5.6 28 Oeste 46 Oeste 0 -- -- 88
2020-11-14 09:00:00 5.2 23 Oeste 38 Oeste 0 -- -- 90
2020-11-14 08:00:00 4.9 16 Oeste 28 Noroeste 0 -- -- 91
2020-11-14 07:00:00 4.8 19 Oeste 37 Noroeste 0 -- -- 88
2020-11-14 06:00:00 4.5 20 Oeste 32 Oeste 0 -- -- 92
2020-11-14 05:00:00 3.8 11 Oeste 28 Noroeste 0 -- -- 96
2020-11-14 04:00:00 3.8 11 Oeste 30 Oeste 0 -- -- 95
2020-11-14 03:00:00 4.2 14 Oeste 27 Oeste 0 -- -- 93
2020-11-14 02:00:00 4.2 20 Oeste 30 Oeste 0 -- -- 93
2020-11-14 01:00:00 4.1 22 Oeste 27 Oeste 0 -- -- 96
2020-11-14 00:00:00 4.3 21 Noroeste 26 Oeste 0 -- -- 94
2020-11-13 23:00:00 4 10 Oeste 17 Noroeste 0 -- -- 92
2020-11-13 22:00:00 4.7 11 Noroeste 17 Noroeste 0 -- -- 90
2020-11-13 21:00:00 4.6 14 Noroeste 19 Noroeste 0 -- -- 91
2020-11-13 20:00:00 5 14 Noroeste 19 Noroeste 0 -- -- 92
2020-11-13 19:00:00 5.6 17 Oeste 21 Oeste 0 -- -- 89
2020-11-13 18:00:00 7 12 Oeste 20 Oeste 0 -- -- 77
2020-11-13 17:00:00 11.6 11 Oeste 26 Oeste 0 -- -- 51
2020-11-13 16:00:00 12.4 17 Oeste 27 Oeste 0 -- -- 49
2020-11-13 15:00:00 12.8 17 Oeste 27 Oeste 0 -- -- 51
2020-11-13 14:00:00 12.5 13 Oeste 20 Oeste 0 -- -- 57
2020-11-13 13:00:00 12.1 13 Oeste 28 Oeste 0 -- -- 54
2020-11-13 12:00:00 11.4 10 Oeste 28 Oeste 0 -- -- 58
2020-11-13 11:00:00 9.4 5 Oeste 14 Oeste 0 -- -- 55
2020-11-13 10:00:00 8.9 9 Oeste 16 Oeste 0 -- -- 51
2020-11-13 09:00:00 6.3 12 Oeste 16 Oeste 0 -- -- 55
2020-11-13 08:00:00 6 9 Oeste 12 Oeste 0 -- -- 57
2020-11-13 07:00:00 6.5 7 Oeste 12 Oeste 0 -- -- 49
2020-11-13 06:00:00 6.6 4 Sudoeste 12 Noroeste 0 -- -- 46
2020-11-13 05:00:00 7 6 Noroeste 14 Oeste 0 -- -- 41
2020-11-13 04:00:00 7.6 9 Oeste 17 Oeste 0 -- -- 34
2020-11-13 03:00:00 8 10 Oeste 15 Oeste 0 -- -- 30
2020-11-13 02:00:00 7.9 12 Oeste 19 Oeste 0 -- -- 28
2020-11-13 01:00:00 8.4 10 Oeste 15 Oeste 0 -- -- 25
2020-11-13 00:00:00 8.1 6 Oeste 13 Oeste 0 -- -- 27
2020-11-12 23:00:00 7.8 15 Noroeste 17 Noroeste 0 -- -- 31
2020-11-12 22:00:00 6.7 12 Noroeste 13 Noroeste 0 -- -- 73
2020-11-12 21:00:00 8 8 Oeste 11 Sudoeste 0 -- -- 57
2020-11-12 20:00:00 8.1 6 Sudoeste 8 Sudoeste 0 -- -- 62
2020-11-12 19:00:00 8.8 4 Noroeste 10 Oeste 0 -- -- 66
2020-11-12 18:00:00 9.2 9 Noroeste 19 Oeste 0 -- -- 63
2020-11-12 17:00:00 12 9 Oeste 20 Oeste 0 -- -- 59
2020-11-12 16:00:00 13.4 14 Oeste 25 Oeste 0 -- -- 58
2020-11-12 15:00:00 14 15 Oeste 23 Noroeste 0 -- -- 52
2020-11-12 14:00:00 13.5 14 Oeste 28 Oeste 0 -- -- 53
2020-11-12 13:00:00 12.2 17 Oeste 25 Oeste 0 -- -- 54
2020-11-12 12:00:00 11.1 14 Oeste 26 Oeste 0 -- -- 59
2020-11-12 11:00:00 9.1 12 Oeste 22 Noroeste 0 -- -- 68
2020-11-12 10:00:00 6.2 12 Oeste 18 Noroeste 0 -- -- 79
2020-11-12 09:00:00 7.7 8 Noroeste 14 Noroeste 0 -- -- 79
2020-11-12 08:00:00 6.8 11 Oeste 15 Noroeste 0 -- -- 85
2020-11-12 07:00:00 6 12 Noroeste 18 Oeste 0 -- -- 76
2020-11-12 06:00:00 5.4 12 Oeste 16 Oeste 0 -- -- 78
2020-11-12 05:00:00 5.5 13 Noroeste 17 Noroeste 0 -- -- 75
2020-11-12 04:00:00 5.3 13 Noroeste 16 Oeste 0 -- -- 76
2020-11-12 03:00:00 4.9 12 Oeste 18 Noroeste -- -- -- 82
2020-11-12 02:00:00 4.8 10 Noroeste 29 Noroeste 0 -- -- 84
2020-11-12 01:00:00 5.1 17 Noroeste 25 Noroeste 0 -- -- 78
2020-11-12 00:00:00 5 21 Noroeste 24 Oeste 0.2 -- -- 78
2020-11-11 23:00:00 4 12 Oeste 18 Oeste 0 -- -- 94
2020-11-11 22:00:00 4.1 16 Oeste 29 Noroeste 0 -- -- 94
2020-11-11 21:00:00 4.2 21 Noroeste 29 Oeste 0 -- -- 91
2020-11-11 20:00:00 3.3 16 Oeste 23 Noroeste 0 -- -- 96
2020-11-11 19:00:00 3.7 18 Oeste 30 Oeste 0 -- -- 93
2020-11-11 18:00:00 3.7 13 Oeste 21 Oeste 0 -- -- 93
2020-11-11 17:00:00 4.2 11 Oeste 25 Oeste 0 -- -- 92
2020-11-11 16:00:00 5 16 Oeste 31 Oeste 0 -- -- 86
2020-11-11 15:00:00 6.5 17 Oeste 39 Oeste 0 -- -- 79
2020-11-11 14:00:00 8.3 23 Oeste 41 Oeste 0 -- -- 74
2020-11-11 13:00:00 6.3 31 Oeste 49 Oeste 0 -- -- 82
2020-11-11 12:00:00 7.3 33 Oeste 46 Oeste 0 -- -- 78
2020-11-11 11:00:00 5.7 26 Oeste 36 Oeste 0 -- -- 85
2020-11-11 10:00:00 5.1 14 Oeste 32 Oeste 0 -- -- 89
2020-11-11 09:00:00 4.8 21 Oeste 28 Oeste 0 -- -- 91
2020-11-11 08:00:00 3.5 17 Oeste 19 Oeste 0 -- -- 87
2020-11-11 07:00:00 3.6 9 Oeste 14 Oeste 0 -- -- 83
2020-11-11 06:00:00 3.8 9 Oeste 17 Noroeste 0 -- -- 81
2020-11-11 05:00:00 3.9 16 Noroeste 20 Oeste 0 -- -- 82
2020-11-11 04:00:00 3.9 17 Noroeste 20 Noroeste 0 -- -- 82
2020-11-11 03:00:00 4 15 Oeste 21 Oeste 0 -- -- 70
2020-11-11 02:00:00 5.1 12 Oeste 15 Oeste 0 -- -- 55
2020-11-11 01:00:00 4.8 10 Oeste 14 Oeste 0 -- -- 55
2020-11-11 00:00:00 5.4 8 Oeste 14 Oeste 0 -- -- 52
2020-11-10 23:00:00 5 11 Oeste 13 Oeste 0 -- -- 54
2020-11-10 22:00:00 4.9 11 Oeste 13 Noroeste 0 -- -- 63
2020-11-10 21:00:00 4.8 8 Noroeste 10 Noroeste 0 -- -- 80
2020-11-10 20:00:00 3.5 9 Noroeste 13 Noroeste 0 -- -- 99
2020-11-10 19:00:00 4 8 Oeste 14 Oeste 0 -- -- 97
2020-11-10 18:00:00 4.2 13 Noroeste 16 Noroeste 0 -- -- 96
2020-11-10 17:00:00 8.3 6 Oeste 20 Oeste 0 -- -- 80
2020-11-10 16:00:00 7.7 13 Noroeste 19 Noroeste 0 -- -- 83
2020-11-10 15:00:00 9.9 9 Oeste 22 Oeste 0 -- -- 76
2020-11-10 14:00:00 10.3 12 Oeste 20 Oeste 0 -- -- 75
2020-11-10 13:00:00 11.6 5 Oeste 16 Oeste 0 -- -- 70
2020-11-10 12:00:00 7.4 3 Sudeste 8 Oeste 0 -- -- 84
2020-11-10 11:00:00 9.1 3 Oeste 8 Sudoeste 0 -- -- 75
2020-11-10 10:00:00 8.8 0 Calma 3 Noroeste 0 -- -- 72
2020-11-10 09:00:00 4 3 Oeste 5 Noroeste 0 -- -- 87
2020-11-10 08:00:00 2.9 0 Calma 4 Este 0 -- -- 89
2020-11-10 07:00:00 3.6 2 Este 4 Sudeste 0 -- -- 84
2020-11-10 06:00:00 3.5 2 Sudeste 4 Este 0 -- -- 91
2020-11-10 05:00:00 3.8 0 Calma 2 Nordeste 0 -- -- 95
2020-11-10 04:00:00 3.1 0 Calma -- -- 0 -- -- 96
2020-11-10 03:00:00 3.1 0 Calma 5 Noroeste 0 -- -- 96
2020-11-10 02:00:00 3.6 2 Oeste 3 Oeste 0 -- -- 95
2020-11-10 01:00:00 4.2 3 Oeste 6 Noroeste 0.2 -- -- 95
2020-11-10 00:00:00 4 4 Noroeste 8 Noroeste 0 -- -- 97
2020-11-09 23:00:00 4.6 4 Oeste 9 Noroeste 0 -- -- 100
2020-11-09 22:00:00 4.2 11 Noroeste 16 Noroeste 0 -- -- 100
2020-11-09 21:00:00 4.2 12 Noroeste 14 Noroeste 0 -- -- 100
2020-11-09 20:00:00 4.4 10 Oeste 14 Oeste 0 -- -- 100
2020-11-09 19:00:00 5.2 10 Oeste 15 Oeste 0 -- -- 100
2020-11-09 18:00:00 5.4 9 Oeste 17 Oeste 0 -- -- 99
2020-11-09 17:00:00 5.7 11 Oeste 17 Oeste 0 -- -- 99
2020-11-09 16:00:00 6.1 8 Oeste 22 Noroeste 0 -- -- 100
2020-11-09 15:00:00 5.6 9 Oeste 23 Oeste 0.2 -- -- 100
2020-11-09 14:00:00 6.3 11 Oeste 19 Sudoeste 0 -- -- 98
2020-11-09 13:00:00 5.3 12 Oeste 24 Noroeste 0 -- -- 99
2020-11-09 12:00:00 5.3 12 Oeste 23 Oeste 0 -- -- 99
2020-11-09 11:00:00 4.9 9 Oeste 25 Oeste 0 -- -- 100
2020-11-09 10:00:00 4.4 12 Oeste 20 Oeste 0 -- -- 100
2020-11-09 09:00:00 4.2 11 Oeste 19 Oeste 0 -- -- 100
2020-11-09 08:00:00 3.9 10 Oeste 22 Oeste 0 -- -- 100
2020-11-09 07:00:00 3.8 15 Oeste 30 Oeste 0 -- -- 100
2020-11-09 06:00:00 4.2 17 Oeste 30 Oeste 0 -- -- 100
2020-11-09 05:00:00 3.9 15 Oeste 33 Oeste 0 -- -- 100
2020-11-09 04:00:00 4.1 18 Oeste 31 Oeste 0 -- -- 100
2020-11-09 03:00:00 4.2 13 Oeste 28 Oeste 0 -- -- 100
2020-11-09 02:00:00 4.5 18 Oeste 30 Oeste 0 -- -- 100
2020-11-09 01:00:00 5.2 13 Oeste 25 Oeste 0 -- -- 100
2020-11-09 00:00:00 5.4 13 Oeste 34 Oeste 0.2 -- -- 100
2020-11-08 23:00:00 5.2 15 Oeste 52 Oeste 0.2 -- -- 100
2020-11-08 22:00:00 5.1 28 Oeste 51 Oeste 1 -- -- 100
2020-11-08 21:00:00 5.7 32 Oeste 55 Oeste 0.6 -- -- 100
2020-11-08 20:00:00 5.8 23 Oeste 43 Oeste 0.4 -- -- 100
2020-11-08 19:00:00 5.7 25 Oeste 43 Oeste 0 -- -- 100
2020-11-08 18:00:00 5.8 23 Oeste 45 Sudoeste 0.2 -- -- 100
2020-11-08 17:00:00 5.4 29 Oeste 51 Oeste 0 -- -- 99
2020-11-08 16:00:00 5.3 19 Oeste 49 Oeste 1.2 -- -- 100
2020-11-08 15:00:00 5.3 33 Oeste 67 Sudoeste 0.6 -- -- 100
2020-11-08 14:00:00 5.6 37 Oeste 62 Oeste 1.6 -- -- 100
2020-11-08 13:00:00 5.5 26 Sudoeste 57 Oeste 1.6 -- -- 100
2020-11-08 12:00:00 5.4 27 Sudoeste 54 Sudoeste 0.6 -- -- 100
2020-11-08 11:00:00 5.4 27 Sudoeste 55 Oeste 0.4 -- -- 100
2020-11-08 10:00:00 5.7 29 Oeste 58 Oeste 0 -- -- 100
2020-11-08 09:00:00 5.1 33 Oeste 59 Oeste 0.2 -- -- 100
2020-11-08 08:00:00 5.1 38 Oeste 59 Sudoeste 0.4 -- -- 100
2020-11-08 07:00:00 5.2 35 Oeste 51 Oeste 1.8 -- -- 100
2020-11-08 06:00:00 5.2 30 Oeste 45 Oeste 1.2 -- -- 100
2020-11-08 05:00:00 5.5 26 Oeste 46 Oeste 0.8 -- -- 100
2020-11-08 04:00:00 5.2 33 Oeste 50 Oeste 0.2 -- -- 100
2020-11-08 03:00:00 5.4 26 Oeste 45 Sudoeste 0 -- -- 100
2020-11-08 02:00:00 5.4 26 Oeste 45 Oeste 0 -- -- 99
2020-11-08 01:00:00 5.4 22 Oeste 42 Noroeste 0 -- -- 98
2020-11-08 00:00:00 5.7 27 Oeste 52 Oeste 0 -- -- 95
2020-11-07 23:00:00 5.8 26 Oeste 44 Oeste 0 -- -- 95
2020-11-07 22:00:00 5.6 19 Oeste 49 Oeste 0 -- -- 96
2020-11-07 21:00:00 5.9 24 Oeste 39 Oeste 0 -- -- 93
2020-11-07 20:00:00 5.8 21 Oeste 45 Oeste 0 -- -- 93
2020-11-07 19:00:00 6.1 26 Oeste 45 Oeste 0 -- -- 91
2020-11-07 18:00:00 6.3 27 Oeste 43 Oeste 0 -- -- 90
2020-11-07 17:00:00 6.5 23 Oeste 45 Oeste 0 -- -- 89
2020-11-07 16:00:00 6.6 23 Oeste 49 Oeste 0 -- -- 96
2020-11-07 15:00:00 7.1 28 Oeste 46 Oeste 0 -- -- 98
2020-11-07 14:00:00 6 30 Oeste 53 Oeste 0 -- -- 100
2020-11-07 13:00:00 6.1 25 Oeste 43 Oeste 0.8 -- -- 98
2020-11-07 12:00:00 6.5 12 Oeste 27 Sudoeste 0 -- -- 99
2020-11-07 11:00:00 6.2 13 Oeste 24 Sudoeste 0 -- -- 100
2020-11-07 10:00:00 6 16 Oeste 33 Oeste 0.4 -- -- 100
2020-11-07 09:00:00 5.9 19 Oeste 34 Sudoeste 0.2 -- -- 100
2020-11-07 08:00:00 6 18 Oeste 33 Oeste 0 -- -- 100
2020-11-07 07:00:00 6 24 Sudoeste 52 Sudoeste 0 -- -- 100
2020-11-07 06:00:00 6.6 17 Sudoeste 68 Sudoeste 0 -- -- 100
2020-11-07 05:00:00 6.6 35 Sudoeste 63 Oeste 2.4 -- -- 100
2020-11-07 04:00:00 6.7 45 Sudoeste 83 Sudoeste 0.8 -- -- 100
2020-11-07 03:00:00 7.2 49 Sudoeste 73 Sudoeste 0.2 -- -- 99
2020-11-07 02:00:00 7.3 46 Sudoeste 77 Oeste 0 -- -- 100
2020-11-07 01:00:00 6.9 35 Sudoeste 99 Sudoeste 3.6 -- -- 98
2020-11-07 00:00:00 6.8 22 Sudoeste 59 Oeste 1 -- -- 97
2020-11-06 23:00:00 6.4 23 Sur 117 Sudoeste 4 -- -- 94
2020-11-06 22:00:00 7.5 64 Sudoeste 115 Sudoeste 3 -- -- 96
2020-11-06 21:00:00 9.3 39 Sur 89 Sudoeste 0 -- -- 93
2020-11-06 20:00:00 9.5 49 Sudoeste 87 Sudoeste 0 -- -- 94
2020-11-06 19:00:00 9.6 40 Sudoeste 90 Sudoeste 0 -- -- 94
2020-11-06 18:00:00 9.4 44 Sudoeste 78 Sudoeste 0 -- -- 96
2020-11-06 17:00:00 9.3 40 Sudoeste 67 Sur 0 -- -- 93
2020-11-06 16:00:00 8.5 32 Sudoeste 75 Sudoeste 0 -- -- 95
2020-11-06 15:00:00 8.8 36 Sur 76 Sur 0 -- -- 91
2020-11-06 14:00:00 8.7 28 Sur 54 Sur 0 -- -- 92
2020-11-06 13:00:00 8.1 22 Sur 43 Sur 0 -- -- 98
2020-11-06 12:00:00 7.1 21 Sur 48 Sur 0 -- -- 100
2020-11-06 11:00:00 8 9 Sudoeste 61 Sudoeste 0.2 -- -- 100
2020-11-06 10:00:00 6 39 Sudoeste 65 Sudoeste 0 -- -- 100
2020-11-06 09:00:00 5.8 32 Sudoeste 67 Sudoeste 0 -- -- 100
2020-11-06 08:00:00 5.7 36 Sudoeste 67 Oeste 0 -- -- 100
2020-11-06 07:00:00 5.8 37 Sudoeste 58 Sudoeste 0 -- -- 100
2020-11-06 06:00:00 5.9 30 Sudoeste 73 Sudoeste 0 -- -- 100
2020-11-06 05:00:00 6 28 Sudoeste 57 Sudoeste 0 -- -- 100
2020-11-06 04:00:00 5.9 28 Sur 54 Sur 0 -- -- 100
2020-11-06 03:00:00 5.8 29 Sudoeste 53 Sudoeste 0 -- -- 100
2020-11-06 02:00:00 5.7 24 Sudoeste 59 Sur 0.2 -- -- 100
2020-11-06 01:00:00 5.7 32 Sudoeste 66 Sudoeste 0.4 -- -- 99
2020-11-06 00:00:00 5.7 28 Sur 53 Sur 1.2 -- -- 99
2020-11-05 23:00:00 5.9 30 Sur 58 Sur 0.2 -- -- 98
2020-11-05 22:00:00 5.7 17 Sudeste 37 Sudeste 0 -- -- 99
2020-11-05 21:00:00 5.2 9 Este 23 Sur 0 -- -- 98
2020-11-05 20:00:00 5.1 9 Este 22 Este 0.4 -- -- 96
2020-11-05 19:00:00 4.9 19 Este 31 Este 0 -- -- 96
2020-11-05 18:00:00 5.1 22 Este 32 Sudeste 0 -- -- 96
2020-11-05 17:00:00 5.9 16 Este 26 Este 0 -- -- 90
2020-11-05 16:00:00 6.9 12 Sudeste 27 Sudeste 0 -- -- 85
2020-11-05 15:00:00 7.7 12 Sudeste 34 Sur 0 -- -- 82
2020-11-05 14:00:00 7.4 23 Este 36 Este 0 -- -- 86
2020-11-05 13:00:00 5.7 27 Este 37 Este 0 -- -- 100
2020-11-05 12:00:00 3.8 27 Este 35 Este 0 -- -- 100
2020-11-05 11:00:00 3.1 26 Este 42 Este 0 -- -- 100
2020-11-05 10:00:00 2.9 31 Este 45 Este 0 -- -- 100
2020-11-05 09:00:00 2.6 24 Este 45 Este 0 -- -- 100
2020-11-05 08:00:00 2.1 32 Este 41 Este 0 -- -- 100
2020-11-05 07:00:00 1.8 26 Este 35 Este 0 -- -- 99
2020-11-05 06:00:00 1.9 24 Este 31 Este 0 -- -- 99
2020-11-05 05:00:00 1.8 7 Sudeste 37 Sudeste 0 -- -- 99
2020-11-05 04:00:00 1.7 22 Este 34 Este 0 -- -- 98
2020-11-05 03:00:00 1.6 14 Sudeste 35 Este 0 -- -- 96
2020-11-05 02:00:00 1.4 12 Sudeste 35 Sudeste 0 -- -- 93
2020-11-05 01:00:00 0.7 20 Este 32 Este 0 -- -- 94
2020-11-05 00:00:00 0.3 21 Este 39 Este 0 -- -- 94